createdAt,value
2022-07-25T00:01:50.961Z,4.47
2022-07-25T00:04:18.791Z,4.25
2022-07-25T00:06:45.893Z,3.83
2022-07-25T00:09:12.896Z,4.22
2022-07-25T00:11:39.906Z,4.10
2022-07-25T00:14:07.316Z,4.45
2022-07-25T00:16:34.666Z,4.20
2022-07-25T00:19:01.587Z,4.80
2022-07-25T00:21:28.490Z,5.20
2022-07-25T00:23:55.339Z,6.28
2022-07-25T00:26:22.241Z,4.85
2022-07-25T00:28:49.111Z,5.05
2022-07-25T00:31:16.096Z,5.22
2022-07-25T00:33:43.033Z,5.63
2022-07-25T00:36:10.368Z,5.65
2022-07-25T00:38:37.455Z,5.65
2022-07-25T00:41:05.120Z,5.60
2022-07-25T00:43:32.308Z,6.07
2022-07-25T00:45:59.799Z,5.70
2022-07-25T00:48:28.864Z,5.60
2022-07-25T00:50:59.758Z,5.60
2022-07-25T00:53:26.777Z,5.47
2022-07-25T00:55:54.330Z,6.13
2022-07-25T00:58:21.207Z,5.55
2022-07-25T01:00:48.150Z,6.10
2022-07-25T01:03:15.456Z,5.95
2022-07-25T01:05:42.445Z,5.65
2022-07-25T01:08:10.108Z,6.30
2022-07-25T01:10:37.697Z,5.65
2022-07-25T01:13:04.872Z,6.18
2022-07-25T01:15:32.041Z,5.90
2022-07-25T01:17:58.970Z,6.03
2022-07-25T01:20:28.739Z,6.65
2022-07-25T01:22:56.368Z,6.75
2022-07-25T01:25:24.290Z,5.97
2022-07-25T01:27:55.877Z,6.70
2022-07-25T01:30:24.473Z,6.93
2022-07-25T01:32:51.892Z,6.22
2022-07-25T01:35:18.822Z,6.32
2022-07-25T01:37:46.074Z,6.72
2022-07-25T01:40:14.398Z,6.90
2022-07-25T01:42:42.449Z,6.97
2022-07-25T01:45:10.866Z,6.60
2022-07-25T01:47:37.926Z,7.65
2022-07-25T01:50:06.061Z,7.10
2022-07-25T01:52:32.875Z,7.25
2022-07-25T01:54:59.791Z,8.20
2022-07-25T01:57:31.131Z,7.60
2022-07-25T01:59:59.472Z,8.13
2022-07-25T02:02:26.424Z,7.35
2022-07-25T02:04:54.283Z,8.15
2022-07-25T02:07:21.207Z,8.00
2022-07-25T02:09:49.374Z,8.00
2022-07-25T02:12:19.030Z,8.00
2022-07-25T02:14:45.917Z,7.80
2022-07-25T02:17:12.858Z,8.65
2022-07-25T02:19:39.987Z,9.20
2022-07-25T02:22:07.076Z,8.23
2022-07-25T02:24:34.047Z,8.80
2022-07-25T02:27:00.926Z,8.15
2022-07-25T02:29:27.778Z,7.53
2022-07-25T02:31:54.647Z,8.30
2022-07-25T02:34:21.593Z,7.88
2022-07-25T02:36:48.393Z,8.38
2022-07-25T02:39:15.176Z,7.85
2022-07-25T02:41:42.727Z,7.43
2022-07-25T02:44:10.170Z,8.20
2022-07-25T02:46:37.435Z,7.47
2022-07-25T02:49:04.969Z,8.07
2022-07-25T02:51:31.960Z,7.45
2022-07-25T02:53:59.223Z,7.80
2022-07-25T02:56:29.804Z,7.60
2022-07-25T02:58:57.579Z,8.07
2022-07-25T03:01:24.647Z,7.80
2022-07-25T03:03:51.732Z,7.45
2022-07-25T03:06:18.728Z,7.63
2022-07-25T03:08:45.731Z,7.97
2022-07-25T03:11:13.614Z,7.43
2022-07-25T03:13:40.563Z,7.90
2022-07-25T03:16:08.040Z,7.30
2022-07-25T03:18:34.863Z,7.25
2022-07-25T03:21:02.008Z,7.60
2022-07-25T03:23:31.025Z,7.78
2022-07-25T03:25:58.172Z,8.73
2022-07-25T03:28:25.347Z,7.28
2022-07-25T03:30:53.089Z,7.80
2022-07-25T03:33:19.987Z,8.45
2022-07-25T03:35:47.094Z,7.65
2022-07-25T03:38:14.085Z,8.18
2022-07-25T03:40:40.995Z,8.57
2022-07-25T03:43:07.829Z,8.18
2022-07-25T03:45:35.129Z,7.85
2022-07-25T03:48:02.226Z,7.90
2022-07-25T03:50:29.075Z,8.80
2022-07-25T03:52:56.110Z,8.45
2022-07-25T03:55:23.035Z,9.02
2022-07-25T03:57:50.844Z,8.18
2022-07-25T04:00:17.960Z,9.65
2022-07-25T04:02:44.898Z,9.20
2022-07-25T04:05:11.893Z,10.40
2022-07-25T04:07:39.280Z,9.45
2022-07-25T04:10:08.162Z,9.13
2022-07-25T04:12:35.126Z,9.95
2022-07-25T04:15:02.041Z,8.32
2022-07-25T04:17:28.849Z,9.55
2022-07-25T04:19:55.894Z,9.68
2022-07-25T04:22:23.498Z,8.70
2022-07-25T04:24:50.346Z,9.77
2022-07-25T04:27:17.144Z,8.77
2022-07-25T04:29:44.117Z,9.00
2022-07-25T04:32:11.118Z,8.93
2022-07-25T04:34:38.035Z,9.18
2022-07-25T04:37:04.989Z,9.32
2022-07-25T04:39:32.080Z,9.82
2022-07-25T04:41:59.048Z,9.60
2022-07-25T04:44:25.873Z,8.68
2022-07-25T04:46:52.852Z,9.65
2022-07-25T04:49:19.687Z,10.35
2022-07-25T04:51:46.586Z,8.52
2022-07-25T04:54:13.558Z,9.38
2022-07-25T04:56:40.540Z,9.60
2022-07-25T04:59:07.415Z,9.75
2022-07-25T05:01:35.349Z,8.77
2022-07-25T05:04:02.345Z,9.35
2022-07-25T05:06:29.385Z,9.48
2022-07-25T05:08:56.276Z,8.73
2022-07-25T05:11:23.076Z,9.35
2022-07-25T05:13:50.117Z,8.65
2022-07-25T05:16:16.975Z,9.82
2022-07-25T05:18:43.876Z,9.93
2022-07-25T05:21:14.214Z,9.00
2022-07-25T05:23:41.257Z,9.40
2022-07-25T05:26:08.361Z,8.93
2022-07-25T05:28:35.317Z,9.35
2022-07-25T05:31:02.326Z,10.10
2022-07-25T05:33:29.320Z,9.43
2022-07-25T05:35:56.136Z,9.38
2022-07-25T05:38:23.049Z,9.55
2022-07-25T05:40:52.142Z,9.52
2022-07-25T05:43:19.273Z,9.70
2022-07-25T05:45:47.502Z,9.98
2022-07-25T05:48:16.080Z,9.57
2022-07-25T05:50:43.036Z,9.38
2022-07-25T05:53:09.846Z,9.60
2022-07-25T05:55:40.875Z,9.25
2022-07-25T05:58:09.442Z,9.35
2022-07-25T06:00:37.003Z,8.80
2022-07-25T06:03:04.291Z,8.90
2022-07-25T06:05:31.518Z,8.68
2022-07-25T06:07:58.350Z,8.52
2022-07-25T06:10:25.467Z,8.73
2022-07-25T06:12:52.516Z,8.50
2022-07-25T06:15:22.295Z,9.13
2022-07-25T06:17:49.977Z,7.85
2022-07-25T06:20:17.018Z,8.70
2022-07-25T06:22:43.836Z,9.13
2022-07-25T06:25:10.927Z,8.23
2022-07-25T06:27:38.816Z,8.50
2022-07-25T06:30:18.680Z,8.02
2022-07-25T06:32:46.697Z,7.57
2022-07-25T06:35:13.563Z,7.55
2022-07-25T06:37:40.501Z,7.35
2022-07-25T06:40:08.231Z,6.63
2022-07-25T06:42:40.230Z,7.65
2022-07-25T06:45:11.933Z,8.07
2022-07-25T06:47:40.058Z,7.60
2022-07-25T06:50:08.777Z,7.57
2022-07-25T06:52:38.593Z,7.38
2022-07-25T06:55:06.614Z,6.75
2022-07-25T06:57:33.488Z,7.95
2022-07-25T07:00:00.333Z,7.78
2022-07-25T07:02:27.257Z,6.25
2022-07-25T07:04:54.109Z,7.22
2022-07-25T07:07:21.176Z,7.32
2022-07-25T07:09:48.145Z,6.40
2022-07-25T07:12:15.079Z,6.88
2022-07-25T07:14:44.368Z,6.50
2022-07-25T07:17:11.234Z,6.07
2022-07-25T07:19:43.886Z,6.38
2022-07-25T07:22:10.923Z,5.82
2022-07-25T07:24:42.718Z,5.53
2022-07-25T07:27:11.406Z,5.78
2022-07-25T07:29:38.296Z,5.47
2022-07-25T07:32:06.589Z,5.55
2022-07-25T07:34:33.802Z,5.88
2022-07-25T07:37:00.773Z,5.80
2022-07-25T07:39:27.633Z,6.63
2022-07-25T07:41:54.466Z,6.72
2022-07-25T07:44:21.413Z,5.40
2022-07-25T07:46:48.978Z,5.70
2022-07-25T07:49:16.157Z,6.00
2022-07-25T07:51:43.193Z,7.03
2022-07-25T07:54:28.552Z,6.95
2022-07-25T07:56:55.394Z,6.97
2022-07-25T07:59:22.221Z,6.35
2022-07-25T08:01:49.240Z,6.45
2022-07-25T08:04:17.655Z,7.97
2022-07-25T08:06:44.576Z,8.13
2022-07-25T08:09:11.712Z,8.63
2022-07-25T08:11:38.584Z,7.13
2022-07-25T08:14:07.470Z,7.70
2022-07-25T08:16:35.045Z,6.53
2022-07-25T08:19:01.882Z,6.75
2022-07-25T08:21:28.923Z,6.53
2022-07-25T08:23:55.995Z,6.38
2022-07-25T08:26:22.859Z,7.13
2022-07-25T08:28:59.889Z,7.43
2022-07-25T08:31:36.646Z,5.68
2022-07-25T08:34:04.011Z,6.57
2022-07-25T08:36:34.821Z,5.60
2022-07-25T08:39:02.120Z,6.18
2022-07-25T08:41:29.520Z,7.20
2022-07-25T08:43:56.586Z,6.35
2022-07-25T08:46:24.334Z,6.85
2022-07-25T08:48:52.238Z,8.25
2022-07-25T08:51:19.375Z,7.88
2022-07-25T08:53:48.620Z,7.53
2022-07-25T08:56:20.615Z,7.18
2022-07-25T08:58:49.479Z,7.32
2022-07-25T09:01:16.646Z,7.78
2022-07-25T09:03:44.201Z,6.65
2022-07-25T09:06:22.336Z,6.78
2022-07-25T09:08:54.337Z,7.03
2022-07-25T09:11:33.371Z,6.68
2022-07-25T09:14:06.262Z,5.97
2022-07-25T09:16:40.489Z,5.13
2022-07-25T09:19:12.898Z,5.07
2022-07-25T09:21:42.044Z,4.28
2022-07-25T09:24:19.199Z,3.95
2022-07-25T09:26:49.007Z,3.55
2022-07-25T09:29:25.117Z,3.20
2022-07-25T09:31:53.210Z,3.47
2022-07-25T09:34:30.969Z,3.70
2022-07-25T09:36:58.264Z,3.85
2022-07-25T09:39:49.322Z,3.53
2022-07-25T09:42:24.556Z,3.30
2022-07-25T09:45:17.810Z,3.65
2022-07-25T09:47:55.085Z,3.42
2022-07-25T09:50:23.605Z,3.72
2022-07-25T09:52:52.640Z,3.25
2022-07-25T09:55:20.872Z,3.40
2022-07-25T09:57:49.701Z,3.47
2022-07-25T10:00:24.060Z,3.08
2022-07-25T10:03:05.569Z,3.40
2022-07-25T10:05:51.023Z,3.85
2022-07-25T10:08:19.919Z,3.40
2022-07-25T10:10:46.854Z,3.92
2022-07-25T10:13:28.271Z,4.22
2022-07-25T10:15:55.252Z,4.47
2022-07-25T10:18:27.399Z,4.13
2022-07-25T10:21:24.391Z,4.78
2022-07-25T10:24:07.575Z,4.53
2022-07-25T10:26:36.864Z,4.68
2022-07-25T10:29:11.905Z,4.30
2022-07-25T10:31:50.443Z,3.97
2022-07-25T10:34:31.885Z,3.65
2022-07-25T10:37:19.208Z,2.75
2022-07-25T10:39:48.911Z,2.00
2022-07-25T10:42:18.008Z,2.40
2022-07-25T10:45:09.444Z,2.00
2022-07-25T10:47:40.088Z,2.10
2022-07-25T10:50:25.623Z,1.77
2022-07-25T10:53:00.642Z,1.58
2022-07-25T10:55:29.112Z,2.10
2022-07-25T10:58:20.113Z,1.70
2022-07-25T11:00:47.023Z,1.38
2022-07-25T11:03:18.074Z,1.70
2022-07-25T11:05:46.942Z,1.67
2022-07-25T11:08:22.629Z,1.98
2022-07-25T11:10:53.600Z,1.67
2022-07-25T11:13:20.888Z,1.60
2022-07-25T11:15:48.497Z,1.45
2022-07-25T11:18:15.623Z,1.85
2022-07-25T11:20:42.447Z,1.95
2022-07-25T11:23:09.415Z,2.00
2022-07-25T11:25:36.401Z,1.80
2022-07-25T11:28:03.937Z,1.60
2022-07-25T11:30:31.149Z,1.60
2022-07-25T11:33:01.630Z,2.08
2022-07-25T11:35:30.985Z,2.25
2022-07-25T11:38:01.514Z,1.67
2022-07-25T11:40:28.988Z,1.55
2022-07-25T11:42:59.329Z,1.10
2022-07-25T11:45:28.546Z,1.05
2022-07-25T11:48:13.464Z,1.02
2022-07-25T11:50:44.766Z,0.90
2022-07-25T11:53:14.765Z,1.05
2022-07-25T11:55:43.375Z,1.02
2022-07-25T11:58:13.012Z,1.13
2022-07-25T12:00:42.620Z,1.00
2022-07-25T12:03:15.581Z,1.13
2022-07-25T12:05:46.927Z,1.63
2022-07-25T12:08:16.250Z,1.33
2022-07-25T12:10:44.263Z,1.38
2022-07-25T12:13:24.375Z,1.70
2022-07-25T12:15:51.381Z,1.23
2022-07-25T12:18:18.496Z,1.50
2022-07-25T12:20:45.538Z,1.35
2022-07-25T12:23:13.589Z,1.70
2022-07-25T12:25:42.636Z,1.77
2022-07-25T12:28:10.979Z,1.77
2022-07-25T12:30:39.251Z,1.60
2022-07-25T12:33:06.808Z,2.00
2022-07-25T12:35:37.200Z,2.30
2022-07-25T12:38:04.847Z,1.00
2022-07-25T12:40:31.960Z,1.95
2022-07-25T12:42:59.490Z,1.50
2022-07-25T12:45:26.671Z,2.10
2022-07-25T12:47:53.739Z,1.20
2022-07-25T12:50:20.657Z,1.52
2022-07-25T12:52:48.184Z,1.60
2022-07-25T12:55:17.570Z,1.63
2022-07-25T12:57:45.384Z,1.52
2022-07-25T13:00:17.837Z,1.65
2022-07-25T13:05:11.809Z,1.65
2022-07-25T13:07:39.283Z,1.80
2022-07-25T13:10:07.415Z,2.38
2022-07-25T13:12:34.425Z,1.38
2022-07-25T13:15:01.802Z,1.35
2022-07-25T13:17:28.641Z,1.50
2022-07-25T13:19:56.947Z,2.17
2022-07-25T13:22:24.708Z,1.13
2022-07-25T13:24:52.945Z,1.50
2022-07-25T13:27:20.998Z,1.65
2022-07-25T13:29:48.408Z,1.38
2022-07-25T13:32:16.182Z,1.30
2022-07-25T13:34:43.298Z,1.80
2022-07-25T13:37:10.161Z,1.10
2022-07-25T13:39:38.418Z,1.30
2022-07-25T13:42:05.993Z,1.25
2022-07-25T13:44:32.775Z,1.30
2022-07-25T13:46:59.671Z,1.88
2022-07-25T13:49:26.727Z,1.83
2022-07-25T13:51:53.557Z,1.55
2022-07-25T13:54:21.154Z,1.60
2022-07-25T13:56:48.003Z,1.60
2022-07-25T13:59:21.000Z,1.95
2022-07-25T14:01:48.725Z,1.85
2022-07-25T14:04:15.950Z,1.75
2022-07-25T14:06:43.137Z,1.40
2022-07-25T14:09:10.472Z,2.13
2022-07-25T14:11:37.631Z,2.03
2022-07-25T14:14:04.452Z,2.10
2022-07-25T14:16:32.192Z,1.80
2022-07-25T14:19:00.285Z,2.08
2022-07-25T14:21:27.156Z,1.67
2022-07-25T14:23:54.009Z,1.80
2022-07-25T14:26:20.893Z,2.22
2022-07-25T14:28:47.768Z,2.08
2022-07-25T14:31:14.734Z,2.13
2022-07-25T14:33:41.738Z,1.90
2022-07-25T14:36:09.934Z,2.13
2022-07-25T14:38:37.218Z,2.78
2022-07-25T14:41:09.186Z,2.00
2022-07-25T14:43:40.002Z,2.10
2022-07-25T14:46:08.362Z,2.22
2022-07-25T14:48:39.155Z,2.25
2022-07-25T14:51:07.094Z,1.88
2022-07-25T14:53:35.345Z,1.90
2022-07-25T14:56:04.058Z,1.98
2022-07-25T14:58:31.315Z,2.20
2022-07-25T15:00:58.234Z,2.20
2022-07-25T15:03:25.281Z,2.30
2022-07-25T15:05:52.229Z,2.08
2022-07-25T15:08:19.083Z,2.35
2022-07-25T15:10:45.996Z,2.05
2022-07-25T15:16:00.738Z,2.65
2022-07-25T15:18:28.076Z,2.25
2022-07-25T15:20:55.377Z,2.20
2022-07-25T15:23:24.704Z,2.72
2022-07-25T15:26:08.679Z,2.83
2022-07-25T15:28:37.899Z,2.75
2022-07-25T15:31:05.888Z,2.53
2022-07-25T15:33:33.422Z,2.25
2022-07-25T15:36:00.352Z,2.22
2022-07-25T15:38:28.878Z,2.80
2022-07-25T15:40:55.740Z,1.95
2022-07-25T15:43:22.586Z,2.05
2022-07-25T15:45:49.465Z,1.80
2022-07-25T15:48:17.237Z,1.83
2022-07-25T15:50:46.937Z,1.48
2022-07-25T15:53:14.265Z,2.70
2022-07-25T15:55:42.184Z,1.83
2022-07-25T15:58:10.701Z,1.45
2022-07-25T16:00:38.787Z,1.88
2022-07-25T16:03:06.434Z,2.75
2022-07-25T16:05:33.981Z,2.42
2022-07-25T16:08:02.086Z,2.05
2022-07-25T16:10:30.797Z,4.40
2022-07-25T16:12:57.875Z,2.75
2022-07-25T16:15:25.295Z,2.80
2022-07-25T16:17:53.692Z,1.77
2022-07-25T16:20:20.799Z,2.75
2022-07-25T16:22:48.987Z,2.15
2022-07-25T16:25:16.378Z,2.20
2022-07-25T16:27:43.290Z,2.40
2022-07-25T16:30:10.570Z,2.78
2022-07-25T16:32:37.447Z,1.83
2022-07-25T16:35:04.686Z,1.90
2022-07-25T16:37:31.604Z,2.40
2022-07-25T16:39:58.554Z,1.80
2022-07-25T16:42:25.389Z,2.20
2022-07-25T16:44:52.208Z,2.78
2022-07-25T16:47:20.445Z,2.85
2022-07-25T16:49:47.236Z,1.90
2022-07-25T16:52:14.393Z,3.28
2022-07-25T16:54:41.241Z,1.73
2022-07-25T16:57:09.103Z,1.77
2022-07-25T16:59:36.193Z,1.70
2022-07-25T17:02:04.022Z,1.77
2022-07-25T17:04:31.068Z,1.48
2022-07-25T17:06:57.971Z,1.50
2022-07-25T17:09:27.477Z,1.50
2022-07-25T17:11:54.324Z,1.77
2022-07-25T17:14:23.991Z,1.67
2022-07-25T17:16:53.269Z,2.65
2022-07-25T17:19:20.083Z,1.42
2022-07-25T17:21:46.921Z,2.00
2022-07-25T17:24:14.691Z,2.03
2022-07-25T17:26:41.652Z,1.63
2022-07-25T17:29:09.309Z,1.52
2022-07-25T17:31:36.620Z,1.63
2022-07-25T17:34:03.955Z,1.60
2022-07-25T17:36:30.801Z,1.50
2022-07-25T17:38:57.689Z,1.40
2022-07-25T17:41:24.486Z,1.50
2022-07-25T17:43:51.327Z,1.50
2022-07-25T17:46:18.299Z,1.60
2022-07-25T17:48:46.463Z,1.27
2022-07-25T17:51:13.346Z,1.50
2022-07-25T17:53:40.410Z,1.00
2022-07-25T17:56:08.749Z,1.05
2022-07-25T17:58:36.905Z,1.00
2022-07-25T18:01:09.880Z,1.25
2022-07-25T18:03:37.355Z,1.60
2022-07-25T18:06:04.994Z,1.38
2022-07-25T18:08:35.230Z,1.00
2022-07-25T18:11:03.669Z,1.98
2022-07-25T18:13:30.677Z,2.40
2022-07-25T18:15:57.620Z,1.45
2022-07-25T18:18:24.624Z,1.23
2022-07-25T18:20:51.711Z,1.85
2022-07-25T18:23:18.539Z,1.52
2022-07-25T18:25:45.834Z,1.63
2022-07-25T18:28:12.773Z,1.08
2022-07-25T18:30:39.928Z,2.05
2022-07-25T18:33:07.715Z,1.58
2022-07-25T18:35:35.089Z,1.63
2022-07-25T18:38:02.374Z,2.35
2022-07-25T18:40:29.641Z,1.60
2022-07-25T18:42:56.533Z,1.60
2022-07-25T18:45:23.630Z,1.40
2022-07-25T18:47:50.929Z,1.35
2022-07-25T18:50:20.293Z,1.33
2022-07-25T18:52:47.492Z,1.25
2022-07-25T18:55:14.539Z,1.77
2022-07-25T18:57:41.493Z,1.17
2022-07-25T19:00:09.363Z,1.58
2022-07-25T19:02:36.752Z,1.25
2022-07-25T19:05:03.756Z,1.50
2022-07-25T19:07:31.323Z,1.88
2022-07-25T19:09:58.211Z,2.17
2022-07-25T19:12:26.605Z,1.65
2022-07-25T19:14:54.406Z,2.88
2022-07-25T19:17:21.316Z,2.13
2022-07-25T19:19:48.365Z,1.40
2022-07-25T19:22:15.283Z,1.42
2022-07-25T19:24:42.563Z,1.20
2022-07-25T19:27:09.693Z,1.40
2022-07-25T19:29:37.748Z,1.98
2022-07-25T19:32:06.158Z,1.27
2022-07-25T19:34:33.097Z,1.98
2022-07-25T19:37:00.083Z,1.52
2022-07-25T19:39:27.373Z,2.10
2022-07-25T19:41:54.360Z,1.83
2022-07-25T19:44:21.482Z,1.50
2022-07-25T19:46:49.610Z,1.75
2022-07-25T19:49:16.830Z,1.42
2022-07-25T19:51:43.814Z,1.55
2022-07-25T19:54:11.294Z,2.20
2022-07-25T19:56:38.445Z,2.10
2022-07-25T19:59:05.594Z,1.42
2022-07-25T20:01:36.450Z,1.80
2022-07-25T20:04:05.470Z,1.23
2022-07-25T20:06:32.860Z,1.88
2022-07-25T20:08:59.784Z,1.88
2022-07-25T20:11:26.614Z,1.95
2022-07-25T20:13:54.331Z,2.03
2022-07-25T20:16:21.315Z,1.80
2022-07-25T20:18:48.226Z,1.80
2022-07-25T20:21:17.935Z,1.67
2022-07-25T20:23:45.671Z,1.65
2022-07-25T20:26:13.549Z,1.55
2022-07-25T20:28:40.988Z,1.63
2022-07-25T20:31:07.921Z,1.77
2022-07-25T20:33:34.997Z,2.00
2022-07-25T20:36:02.188Z,1.58
2022-07-25T20:38:29.202Z,1.73
2022-07-25T20:40:56.449Z,2.78
2022-07-25T20:43:24.428Z,2.25
2022-07-25T20:45:51.356Z,1.85
2022-07-25T20:48:18.329Z,2.08
2022-07-25T20:50:45.359Z,1.73
2022-07-25T20:53:12.655Z,1.67
2022-07-25T20:55:39.686Z,2.60
2022-07-25T20:58:06.598Z,1.92
2022-07-25T21:00:33.586Z,1.90
2022-07-25T21:03:00.892Z,1.98
2022-07-25T21:05:28.107Z,2.03
2022-07-25T21:07:55.406Z,1.48
2022-07-25T21:10:22.391Z,2.50
2022-07-25T21:12:49.357Z,1.90
2022-07-25T21:15:16.283Z,2.42
2022-07-25T21:17:43.126Z,1.63
2022-07-25T21:20:12.436Z,2.35
2022-07-25T21:22:39.965Z,2.08
2022-07-25T21:25:08.326Z,2.00
2022-07-25T21:27:36.852Z,2.65
2022-07-25T21:30:05.818Z,2.47
2022-07-25T21:32:32.798Z,2.70
2022-07-25T21:34:59.784Z,2.00
2022-07-25T21:37:26.649Z,2.53
2022-07-25T21:39:54.067Z,2.03
2022-07-25T21:42:20.996Z,2.42
2022-07-25T21:44:47.896Z,1.90
2022-07-25T21:47:14.817Z,2.58
2022-07-25T21:50:02.580Z,2.38
2022-07-25T21:52:34.855Z,2.25
2022-07-25T21:55:03.846Z,2.87
2022-07-25T21:57:31.214Z,2.92
2022-07-25T21:59:58.065Z,2.60
2022-07-25T22:02:25.254Z,2.60
2022-07-25T22:04:52.164Z,2.22
2022-07-25T22:07:19.132Z,2.50
2022-07-25T22:09:46.016Z,1.77
2022-07-25T22:12:12.891Z,2.85
2022-07-25T22:14:39.744Z,2.50
2022-07-25T22:17:06.676Z,2.47
2022-07-25T22:19:33.737Z,3.22
2022-07-25T22:22:00.759Z,2.67
2022-07-25T22:24:27.568Z,1.95
2022-07-25T22:26:54.457Z,2.50
2022-07-25T22:29:21.358Z,2.90
2022-07-25T22:31:48.750Z,2.70
2022-07-25T22:34:15.967Z,2.15
2022-07-25T22:36:42.956Z,2.70
2022-07-25T22:39:11.164Z,3.22
2022-07-25T22:41:38.776Z,2.35
2022-07-25T22:44:05.787Z,2.78
2022-07-25T22:46:32.845Z,2.45
2022-07-25T22:49:00.326Z,3.67
2022-07-25T22:51:29.028Z,3.10
2022-07-25T22:53:57.082Z,2.83
2022-07-25T22:56:24.969Z,3.03
2022-07-25T22:58:52.133Z,2.83
2022-07-25T23:01:19.714Z,3.67
2022-07-25T23:03:49.850Z,3.67
2022-07-25T23:06:18.695Z,2.60
2022-07-25T23:08:45.883Z,3.33
2022-07-25T23:11:12.815Z,2.53
2022-07-25T23:13:39.752Z,2.95
2022-07-25T23:16:10.551Z,2.67
2022-07-25T23:18:38.057Z,2.47
2022-07-25T23:21:05.970Z,2.50
2022-07-25T23:23:32.945Z,3.38
2022-07-25T23:25:59.768Z,2.78
2022-07-25T23:28:26.676Z,2.25
2022-07-25T23:30:53.535Z,2.22
2022-07-25T23:33:21.961Z,2.33
2022-07-25T23:35:53.761Z,2.65
2022-07-25T23:38:21.648Z,2.60
2022-07-25T23:40:49.183Z,2.75
2022-07-25T23:43:16.380Z,2.83
2022-07-25T23:46:03.003Z,3.00
2022-07-25T23:48:29.946Z,2.47
2022-07-25T23:50:56.824Z,2.78
2022-07-25T23:53:23.689Z,2.80
2022-07-25T23:55:50.535Z,2.65
2022-07-25T23:58:17.386Z,2.20
